Time;durP1;ratioP1;P1;durP2;ratioP2;P2;SDS_P1;SDS_P2;PMS_P1;PMS_P2;Temp;Humidity;BMP_temperature;BMP_pressure;BME280_temperature;BME280_humidity;BME280_pressure;Samples;Min_cycle;Max_cycle;Signal;HPM_P1;HPM_P2
2022/08/23 00:02:23;;;;;;;5.47;3.13;;;23.90;91.40;;;;;;5114502;27;20257;-42
2022/08/23 00:04:51;;;;;;;8.57;3.17;;;23.90;91.10;;;;;;5115343;27;20220;-41
2022/08/23 00:07:44;;;;;;;6.28;3.33;;;23.90;91.20;;;;;;5110207;27;20198;-43
2022/08/23 00:10:15;;;;;;;5.35;3.33;;;23.80;91.20;;;;;;5096960;27;20198;-43
2022/08/23 00:12:44;;;;;;;6.75;3.13;;;23.80;91.10;;;;;;5103867;27;20250;-42
2022/08/23 00:15:13;;;;;;;6.60;3.22;;;23.80;91.10;;;;;;5119329;27;20190;-42
2022/08/23 00:17:41;;;;;;;5.15;3.00;;;23.70;91.20;;;;;;5108842;27;20729;-43
2022/08/23 00:20:14;;;;;;;4.57;3.00;;;23.70;91.20;;;;;;5122813;27;20288;-41
2022/08/23 00:22:41;;;;;;;8.15;3.35;;;23.70;91.30;;;;;;5108266;27;20233;-41
2022/08/23 00:25:12;;;;;;;7.05;3.33;;;23.60;91.30;;;;;;5118881;27;20226;-41
2022/08/23 00:27:39;;;;;;;7.97;3.53;;;23.60;91.40;;;;;;5111292;27;20247;-42
2022/08/23 00:30:09;;;;;;;7.10;3.33;;;23.60;91.30;;;;;;5116926;27;20678;-41
2022/08/23 00:32:38;;;;;;;4.57;2.90;;;23.60;91.30;;;;;;5123892;27;20214;-41
2022/08/23 00:35:08;;;;;;;5.75;3.05;;;23.50;91.30;;;;;;5113682;27;20789;-45
2022/08/23 00:37:41;;;;;;;5.65;3.05;;;23.50;91.40;;;;;;5106821;27;20204;-40
2022/08/23 00:40:15;;;;;;;6.70;3.42;;;23.50;91.40;;;;;;5124420;27;20231;-40
2022/08/23 00:48:35;;;;;;;5.05;3.28;;;23.40;91.30;;;;;;5115288;27;20450;-43
2022/08/23 00:51:15;;;;;;;6.07;3.40;;;23.70;91.80;;;;;;5114561;27;20309;-42
2022/08/23 00:53:48;;;;;;;4.20;3.20;;;23.60;91.50;;;;;;5116255;27;20300;-43
2022/08/23 00:56:21;;;;;;;8.02;3.40;;;23.60;91.60;;;;;;5114329;27;20572;-41
2022/08/23 00:58:49;;;;;;;5.88;3.28;;;23.50;91.50;;;;;;5093570;27;20560;-42
2022/08/23 01:01:18;;;;;;;4.60;3.72;;;23.50;91.50;;;;;;5110374;27;20696;-42
2022/08/23 01:03:52;;;;;;;5.53;3.25;;;23.50;91.50;;;;;;5115348;27;20262;-42
2022/08/23 01:06:36;;;;;;;8.68;3.60;;;23.50;91.60;;;;;;5117368;27;20242;-42
2022/08/23 01:09:18;;;;;;;5.93;3.47;;;23.40;91.50;;;;;;5113520;27;20206;-42
2022/08/23 01:11:50;;;;;;;5.30;2.80;;;23.40;91.60;;;;;;5111684;27;20205;-42
2022/08/23 01:14:25;;;;;;;7.75;3.38;;;23.30;91.60;;;;;;5087605;27;20676;-44
2022/08/23 01:17:02;;;;;;;4.35;3.25;;;23.30;91.60;;;;;;5095762;27;20212;-43
2022/08/23 01:19:38;;;;;;;6.47;3.15;;;23.30;91.60;;;;;;5096531;27;20588;-43
2022/08/23 01:22:14;;;;;;;4.78;3.20;;;23.20;91.70;;;;;;5112325;27;20320;-41
2022/08/23 01:24:43;;;;;;;8.00;3.13;;;23.20;91.70;;;;;;5096548;27;20208;-41
2022/08/23 01:27:30;;;;;;;7.05;3.03;;;23.10;91.70;;;;;;5114377;27;20751;-41
2022/08/23 01:30:03;;;;;;;6.65;3.22;;;23.10;91.60;;;;;;5118424;27;20244;-42
2022/08/23 01:32:41;;;;;;;5.68;3.08;;;23.10;91.60;;;;;;5124328;27;20736;-42
2022/08/23 01:35:10;;;;;;;6.78;3.20;;;23.30;92.10;;;;;;5111352;27;20287;-41
2022/08/23 01:37:40;;;;;;;9.10;3.05;;;23.20;91.90;;;;;;5114816;27;20198;-42
2022/08/23 01:40:10;;;;;;;3.78;2.97;;;23.10;91.90;;;;;;5092679;27;20294;-42
2022/08/23 01:42:42;;;;;;;6.30;3.60;;;23.10;91.80;;;;;;5116563;27;20808;-47
2022/08/23 01:45:12;;;;;;;5.50;3.50;;;23.10;91.80;;;;;;5117849;27;20285;-46
2022/08/23 01:47:40;;;;;;;4.90;3.25;;;23.00;91.60;;;;;;5120573;27;20225;-47
2022/08/23 01:50:09;;;;;;;6.05;3.83;;;23.00;91.70;;;;;;5123183;27;20210;-45
2022/08/23 01:52:40;;;;;;;7.57;3.40;;;22.90;91.70;;;;;;5115831;27;20202;-48
2022/08/23 01:55:23;;;;;;;6.30;3.55;;;22.90;91.70;;;;;;5116751;27;20208;-46
2022/08/23 01:57:57;;;;;;;6.03;3.45;;;22.90;91.70;;;;;;5118254;27;20301;-40
2022/08/23 02:00:30;;;;;;;7.22;3.72;;;22.80;91.70;;;;;;5091224;28;20667;-42
2022/08/23 02:03:00;;;;;;;6.53;3.30;;;22.80;91.70;;;;;;5086222;28;20220;-41
2022/08/23 02:05:31;;;;;;;7.60;3.50;;;22.80;91.70;;;;;;5117395;28;20218;-42
2022/08/23 02:08:59;;;;;;;4.60;3.50;;;22.80;91.70;;;;;;5122134;28;20282;-41
2022/08/23 02:10:48;;;;;;;8.43;3.35;;;22.70;91.70;;;;;;5115648;27;20223;-41
2022/08/23 02:13:20;;;;;;;5.65;3.40;;;22.70;91.60;;;;;;5101723;28;20763;-43
2022/08/23 02:15:51;;;;;;;6.18;3.13;;;22.60;91.60;;;;;;5116179;28;20751;-47
2022/08/23 02:18:19;;;;;;;7.72;3.40;;;22.60;91.60;;;;;;5103280;28;20198;-47
2022/08/23 02:20:50;;;;;;;7.20;3.42;;;22.60;91.60;;;;;;5098255;28;20752;-47
2022/08/23 02:23:23;;;;;;;7.18;3.40;;;22.50;91.70;;;;;;5112020;28;20229;-47
2022/08/23 02:25:53;;;;;;;7.20;3.75;;;22.50;91.60;;;;;;5121143;28;20201;-47
2022/08/23 02:28:22;;;;;;;4.97;3.30;;;22.50;91.60;;;;;;5112735;28;20690;-48
2022/08/23 02:30:50;;;;;;;8.85;3.53;;;22.40;91.60;;;;;;5113722;28;20576;-46
2022/08/23 02:33:18;;;;;;;7.72;3.83;;;22.40;91.70;;;;;;5101835;27;20212;-47
2022/08/23 02:35:46;;;;;;;6.32;3.75;;;22.40;91.70;;;;;;5120533;27;20195;-48
2022/08/23 02:38:17;;;;;;;5.50;3.20;;;22.30;91.80;;;;;;5123347;27;20753;-47
2022/08/23 02:40:49;;;;;;;6.55;3.22;;;22.30;91.90;;;;;;5112011;27;20676;-45
2022/08/23 02:43:32;;;;;;;6.38;3.50;;;22.30;91.80;;;;;;5112849;27;21279;-47
2022/08/23 02:46:06;;;;;;;5.78;3.60;;;22.20;91.80;;;;;;5103697;27;20551;-47
2022/08/23 02:48:35;;;;;;;7.05;3.20;;;22.20;91.90;;;;;;5121948;27;20208;-47
2022/08/23 02:51:07;;;;;;;6.35;3.75;;;22.20;91.90;;;;;;5104565;27;20197;-47
2022/08/23 02:53:37;;;;;;;7.57;3.75;;;22.10;91.90;;;;;;5123642;27;20603;-47
2022/08/23 02:56:05;;;;;;;7.30;3.70;;;22.10;91.90;;;;;;5118352;27;20301;-46
2022/08/23 02:58:46;;;;;;;7.32;3.78;;;22.00;92.00;;;;;;5099330;27;20236;-47
2022/08/23 03:01:28;;;;;;;7.25;3.90;;;22.00;91.90;;;;;;5116830;27;20232;-46
2022/08/23 03:03:56;;;;;;;8.07;4.22;;;22.00;92.10;;;;;;5119768;27;20205;-49
2022/08/23 03:06:26;;;;;;;4.38;3.45;;;22.00;92.00;;;;;;5122129;27;20202;-49
2022/08/23 03:08:54;;;;;;;7.63;3.53;;;22.00;92.00;;;;;;5119763;27;20208;-48
2022/08/23 03:11:23;;;;;;;6.05;3.58;;;21.90;92.00;;;;;;5132283;27;20283;-45
2022/08/23 03:13:52;;;;;;;4.95;3.80;;;21.90;92.10;;;;;;5099570;27;20663;-47
2022/08/23 03:16:20;;;;;;;7.47;3.65;;;21.90;92.10;;;;;;5122735;27;20218;-49
2022/08/23 03:18:48;;;;;;;7.88;4.05;;;21.80;92.10;;;;;;5118058;27;20300;-48
2022/08/23 03:21:17;;;;;;;5.82;3.15;;;21.80;92.10;;;;;;5120930;27;20204;-48
2022/08/23 03:23:44;;;;;;;5.45;3.97;;;21.80;92.00;;;;;;5109560;27;20257;-46
2022/08/23 03:26:17;;;;;;;6.97;4.20;;;21.70;92.00;;;;;;5109833;27;20214;-43
2022/08/23 03:28:48;;;;;;;5.97;3.50;;;21.70;92.10;;;;;;5111022;27;20189;-42
2022/08/23 03:31:19;;;;;;;5.88;3.80;;;21.70;92.10;;;;;;5120616;27;20202;-42
2022/08/23 03:33:50;;;;;;;6.80;4.10;;;21.60;92.10;;;;;;5115434;27;20229;-42
2022/08/23 03:36:20;;;;;;;7.35;4.18;;;21.60;92.10;;;;;;5111923;27;20205;-42
2022/08/23 03:38:57;;;;;;;8.68;4.15;;;21.60;92.10;;;;;;5093935;27;20607;-42
2022/08/23 03:41:24;;;;;;;6.97;3.83;;;21.60;92.00;;;;;;5115402;27;20676;-43
2022/08/23 03:43:54;;;;;;;8.73;4.50;;;21.60;92.10;;;;;;5112769;27;20239;-42
2022/08/23 03:46:22;;;;;;;10.52;4.43;;;21.50;92.10;;;;;;5108986;27;20218;-43
2022/08/23 03:49:01;;;;;;;5.63;3.90;;;21.50;92.10;;;;;;5119343;27;20275;-43
2022/08/23 03:51:33;;;;;;;8.32;4.20;;;21.50;92.10;;;;;;5111035;27;20664;-43
2022/08/23 03:54:02;;;;;;;7.10;4.13;;;21.50;92.10;;;;;;5121798;27;20204;-44
2022/08/23 03:56:36;;;;;;;8.00;4.32;;;21.40;92.20;;;;;;5101360;28;20263;-43
2022/08/23 03:59:12;;;;;;;8.38;4.25;;;21.40;92.40;;;;;;5119363;27;20229;-42
2022/08/23 04:01:39;;;;;;;8.07;4.43;;;21.40;92.40;;;;;;5116470;27;20206;-43
2022/08/23 04:04:09;;;;;;;9.05;4.72;;;21.40;92.20;;;;;;5093641;27;20676;-42
2022/08/23 04:06:37;;;;;;;8.13;4.47;;;21.40;92.20;;;;;;5108356;27;20230;-42
2022/08/23 04:09:08;;;;;;;7.03;4.82;;;21.40;92.30;;;;;;5110103;27;20216;-44
2022/08/23 04:11:36;;;;;;;7.78;4.63;;;21.40;92.40;;;;;;5126048;27;20205;-42
2022/08/23 04:14:03;;;;;;;7.78;4.50;;;21.30;92.40;;;;;;5125421;27;20193;-42
2022/08/23 04:16:36;;;;;;;9.65;4.30;;;21.30;92.40;;;;;;5125618;27;20237;-47
2022/08/23 04:19:15;;;;;;;8.73;4.60;;;21.30;92.30;;;;;;5098959;27;20284;-50
2022/08/23 04:21:51;;;;;;;7.90;4.70;;;21.30;92.60;;;;;;5112153;27;20289;-49
2022/08/23 04:24:18;;;;;;;7.80;5.03;;;21.20;92.50;;;;;;5118827;27;20941;-46
2022/08/23 04:26:47;;;;;;;15.07;6.28;;;21.20;92.50;;;;;;5096024;27;20210;-50
2022/08/23 04:29:18;;;;;;;14.45;5.30;;;21.20;92.60;;;;;;5123970;27;20237;-50
2022/08/23 04:32:04;;;;;;;16.60;5.82;;;21.10;92.60;;;;;;5109149;27;20240;-50
2022/08/23 04:34:41;;;;;;;10.43;5.65;;;21.10;92.60;;;;;;5119547;27;20190;-50
2022/08/23 04:37:17;;;;;;;10.63;5.57;;;21.10;92.50;;;;;;5106365;27;20216;-49
2022/08/23 04:42:32;;;;;;;11.90;5.35;;;21.10;92.60;;;;;;5123104;27;20278;-50
2022/08/23 04:45:00;;;;;;;11.23;6.10;;;21.10;92.90;;;;;;5100670;27;20218;-49
2022/08/23 04:47:27;;;;;;;11.35;6.22;;;21.00;92.60;;;;;;5129628;27;20573;-49
2022/08/23 04:49:59;;;;;;;12.27;5.90;;;21.00;92.70;;;;;;5109127;27;20691;-50
2022/08/23 04:52:26;;;;;;;11.63;5.47;;;21.00;92.70;;;;;;5117891;27;20622;-49
2022/08/23 04:54:55;;;;;;;8.93;5.45;;;21.10;92.80;;;;;;5116415;27;20218;-50
2022/08/23 04:57:23;;;;;;;8.60;5.43;;;21.10;92.70;;;;;;5127854;27;20214;-50
2022/08/23 04:59:52;;;;;;;12.85;5.30;;;21.10;92.80;;;;;;5119025;27;20229;-50
2022/08/23 05:02:22;;;;;;;9.90;5.70;;;21.10;92.80;;;;;;5099157;27;20319;-50
2022/08/23 05:04:52;;;;;;;13.20;5.93;;;21.10;92.80;;;;;;5114235;27;20205;-50
2022/08/23 05:07:22;;;;;;;9.40;5.82;;;21.20;92.80;;;;;;5110149;27;20703;-48
2022/08/23 05:10:14;;;;;;;14.70;6.18;;;21.20;92.90;;;;;;5123004;27;20194;-49
2022/08/23 05:12:44;;;;;;;11.93;5.78;;;21.20;92.90;;;;;;5107158;27;20229;-49
2022/08/23 05:15:12;;;;;;;17.85;6.82;;;21.20;93.00;;;;;;5112610;27;20205;-50
2022/08/23 05:17:42;;;;;;;14.52;6.28;;;21.20;93.00;;;;;;5093744;27;20619;-49
2022/08/23 05:20:09;;;;;;;16.15;6.03;;;21.20;93.00;;;;;;5099544;27;20284;-50
2022/08/23 05:22:39;;;;;;;21.63;7.30;;;21.20;93.00;;;;;;5111306;27;21568;-49
2022/08/23 05:25:07;;;;;;;19.85;7.25;;;21.20;93.00;;;;;;5107127;27;20202;-50
2022/08/23 05:27:35;;;;;;;18.38;6.97;;;21.20;93.00;;;;;;5104807;27;20262;-50
2022/08/23 05:30:04;;;;;;;16.83;6.80;;;21.20;93.00;;;;;;5105914;27;20358;-50
2022/08/23 05:32:36;;;;;;;10.73;5.88;;;21.20;93.10;;;;;;5087671;27;20278;-48
2022/08/23 05:35:16;;;;;;;12.27;6.72;;;21.30;93.20;;;;;;5106161;27;20747;-50
2022/08/23 05:37:43;;;;;;;13.85;6.05;;;21.20;93.10;;;;;;5091157;27;20218;-50
2022/08/23 05:40:13;;;;;;;13.23;6.43;;;21.30;93.10;;;;;;5107830;27;20205;-43
2022/08/23 05:42:41;;;;;;;12.63;6.60;;;21.30;93.10;;;;;;5103711;27;20321;-50
2022/08/23 05:45:09;;;;;;;17.25;6.53;;;21.30;93.00;;;;;;5108562;27;20537;-49
2022/08/23 05:47:40;;;;;;;12.10;6.38;;;21.30;93.10;;;;;;5112289;27;20610;-48
2022/08/23 05:50:09;;;;;;;13.35;7.03;;;21.30;93.20;;;;;;5114049;27;20202;-48
2022/08/23 05:52:40;;;;;;;16.20;6.97;;;21.30;93.20;;;;;;5116090;27;20213;-48
2022/08/23 05:55:12;;;;;;;14.88;7.15;;;21.30;93.30;;;;;;5120791;27;20414;-48
2022/08/23 05:57:40;;;;;;;12.00;6.65;;;21.30;93.30;;;;;;5122142;27;20258;-47
2022/08/23 06:00:14;;;;;;;15.95;7.18;;;21.30;93.30;;;;;;5120587;27;20293;-47
2022/08/23 06:02:44;;;;;;;19.73;7.18;;;21.30;93.30;;;;;;5122874;27;20227;-48
2022/08/23 06:05:15;;;;;;;14.95;6.65;;;21.30;93.30;;;;;;5120771;27;20218;-46
2022/08/23 06:07:43;;;;;;;20.05;7.28;;;21.30;93.30;;;;;;5114353;27;20202;-47
2022/08/23 06:10:10;;;;;;;12.05;6.78;;;21.40;93.40;;;;;;5125419;27;20206;-48
2022/08/23 06:12:44;;;;;;;9.13;5.93;;;21.40;93.40;;;;;;5125697;27;20563;-47
2022/08/23 06:15:16;;;;;;;19.35;6.97;;;21.40;93.40;;;;;;5120833;27;20197;-48
2022/08/23 06:17:46;;;;;;;17.70;6.88;;;21.40;93.50;;;;;;5117186;27;20202;-48
2022/08/23 06:20:14;;;;;;;13.48;6.28;;;21.50;93.50;;;;;;5124308;27;20262;-46
2022/08/23 06:22:42;;;;;;;17.63;7.03;;;21.50;93.50;;;;;;5111166;28;20722;-48
2022/08/23 06:25:11;;;;;;;13.05;6.80;;;21.50;93.50;;;;;;5119129;27;20222;-48
2022/08/23 06:27:41;;;;;;;14.73;6.63;;;21.50;93.60;;;;;;5112474;27;20744;-49
2022/08/23 06:30:09;;;;;;;16.23;6.97;;;21.60;93.60;;;;;;5119942;27;20749;-48
2022/08/23 06:32:39;;;;;;;16.55;6.68;;;21.60;93.60;;;;;;5132871;27;20209;-46
2022/08/23 06:35:07;;;;;;;15.75;6.15;;;21.60;93.60;;;;;;5130316;27;20671;-46
2022/08/23 06:38:01;;;;;;;15.00;6.50;;;21.70;93.70;;;;;;5100716;27;20203;-47
2022/08/23 06:40:31;;;;;;;12.48;5.50;;;21.70;93.60;;;;;;5128987;27;20299;-48
2022/08/23 06:43:01;;;;;;;15.13;5.93;;;21.80;93.70;;;;;;5113513;27;20317;-47
2022/08/23 06:45:31;;;;;;;17.35;6.22;;;21.80;93.70;;;;;;5104558;27;20194;-48
2022/08/23 06:48:01;;;;;;;10.18;5.25;;;21.90;93.70;;;;;;5114340;27;20296;-48
2022/08/23 06:50:31;;;;;;;13.30;5.93;;;21.90;93.80;;;;;;5123942;27;20617;-47
2022/08/23 06:52:58;;;;;;;12.05;5.47;;;21.90;93.80;;;;;;5127824;27;20237;-48
2022/08/23 06:55:30;;;;;;;14.35;5.78;;;22.00;93.80;;;;;;5128102;27;20646;-47
2022/08/23 06:57:57;;;;;;;17.75;4.90;;;22.10;94.00;;;;;;5099392;27;20730;-50
2022/08/23 07:00:24;;;;;;;11.52;4.78;;;22.10;93.90;;;;;;5121851;27;20205;-46
2022/08/23 07:02:52;;;;;;;14.77;6.05;;;22.10;94.10;;;;;;5115072;27;20214;-48
2022/08/23 07:05:26;;;;;;;11.23;4.57;;;22.20;94.00;;;;;;5119975;27;20201;-48
2022/08/23 07:07:53;;;;;;;13.43;5.15;;;22.30;94.00;;;;;;5112233;27;20209;-48
2022/08/23 07:10:23;;;;;;;9.18;4.35;;;22.30;94.00;;;;;;5125501;27;20237;-47
2022/08/23 07:12:56;;;;;;;8.98;4.57;;;22.40;94.10;;;;;;5126197;27;20705;-47
2022/08/23 07:15:23;;;;;;;13.77;4.95;;;22.40;94.10;;;;;;5092014;27;20329;-46
2022/08/23 07:17:55;;;;;;;11.07;4.68;;;22.50;94.20;;;;;;5119367;27;20574;-48
2022/08/23 07:20:25;;;;;;;10.77;4.43;;;22.50;94.20;;;;;;5109993;27;20201;-48
2022/08/23 07:22:55;;;;;;;24.65;5.95;;;22.60;94.20;;;;;;5118345;27;20229;-46
2022/08/23 07:25:25;;;;;;;27.55;6.63;;;22.60;94.30;;;;;;5121274;27;20199;-47
2022/08/23 07:27:53;;;;;;;16.83;5.05;;;22.70;94.50;;;;;;5113731;27;20324;-48
2022/08/23 07:30:23;;;;;;;18.80;5.05;;;22.80;94.50;;;;;;5118445;27;20341;-48
2022/08/23 07:32:55;;;;;;;17.95;5.32;;;22.80;94.40;;;;;;5087913;27;20209;-47
2022/08/23 07:35:24;;;;;;;11.07;4.20;;;22.90;94.60;;;;;;5118219;27;20201;-48
2022/08/23 07:37:54;;;;;;;16.65;5.20;;;22.90;94.50;;;;;;5123756;27;20255;-46
2022/08/23 07:40:26;;;;;;;15.75;5.13;;;23.00;94.50;;;;;;5126441;27;20213;-47
2022/08/23 07:42:56;;;;;;;15.88;5.00;;;23.10;94.60;;;;;;5115571;27;20312;-47
2022/08/23 07:45:25;;;;;;;8.38;4.05;;;23.10;94.60;;;;;;5113433;27;20198;-47
2022/08/23 07:47:55;;;;;;;10.48;4.13;;;23.20;94.70;;;;;;5117644;27;20193;-47
2022/08/23 07:50:28;;;;;;;16.50;5.20;;;23.30;94.80;;;;;;5099797;27;20638;-47
2022/08/23 07:52:56;;;;;;;13.18;4.65;;;23.30;94.80;;;;;;5107959;27;20678;-47
2022/08/23 07:55:26;;;;;;;9.25;3.92;;;23.40;94.80;;;;;;5133321;27;20233;-47
2022/08/23 07:57:53;;;;;;;13.68;4.57;;;23.50;95.20;;;;;;5120314;27;20229;-47
2022/08/23 08:00:23;;;;;;;18.42;4.85;;;23.50;94.90;;;;;;5117561;27;20661;-47
2022/08/23 08:02:55;;;;;;;7.93;3.63;;;23.60;95.00;;;;;;5122311;27;20296;-46
2022/08/23 08:05:25;;;;;;;8.90;4.10;;;23.70;95.00;;;;;;5113359;27;20547;-47
2022/08/23 08:07:54;;;;;;;10.40;3.83;;;23.70;95.00;;;;;;5114543;27;20496;-48
2022/08/23 08:10:21;;;;;;;8.98;3.60;;;23.80;95.10;;;;;;5127436;27;20225;-47
2022/08/23 08:12:48;;;;;;;6.60;3.42;;;23.80;95.10;;;;;;5110048;27;20634;-47
2022/08/23 08:15:20;;;;;;;6.93;2.85;;;23.90;95.10;;;;;;5107434;27;20456;-47
2022/08/23 08:17:50;;;;;;;10.80;3.40;;;23.90;95.20;;;;;;5095956;27;20249;-47
2022/08/23 08:20:21;;;;;;;7.18;3.38;;;24.00;95.20;;;;;;5111628;27;20251;-46
2022/08/23 08:22:50;;;;;;;6.28;3.08;;;24.00;95.30;;;;;;5109651;27;20247;-53
2022/08/23 08:25:31;;;;;;;11.05;2.90;;;24.10;95.30;;;;;;5103402;28;20267;-47
2022/08/23 08:28:01;;;;;;;7.90;3.30;;;24.20;95.30;;;;;;5115687;27;20270;-47
2022/08/23 08:30:29;;;;;;;6.75;2.78;;;24.30;95.40;;;;;;5110092;27;20237;-47
2022/08/23 08:32:58;;;;;;;8.30;3.00;;;24.30;95.40;;;;;;5111944;27;20202;-47
2022/08/23 08:35:31;;;;;;;8.32;3.05;;;24.30;95.40;;;;;;5112220;27;20206;-47
2022/08/23 08:38:03;;;;;;;6.30;2.30;;;24.40;95.50;;;;;;5123939;27;20210;-46
2022/08/23 08:40:38;;;;;;;3.00;1.80;;;24.50;95.50;;;;;;5122057;27;20257;-47
2022/08/23 08:43:41;;;;;;;5.50;2.47;;;24.50;95.50;;;;;;5123888;27;20213;-47
2022/08/23 08:46:37;;;;;;;4.40;2.40;;;24.50;95.40;;;;;;5097780;27;20217;-47
2022/08/23 08:49:14;;;;;;;7.03;2.00;;;24.60;95.40;;;;;;5092991;28;20752;-47
2022/08/23 08:52:04;;;;;;;8.52;1.98;;;24.70;95.40;;;;;;5111657;27;20671;-47
2022/08/23 08:54:34;;;;;;;9.05;2.10;;;24.70;95.40;;;;;;5128245;27;20218;-47
2022/08/23 08:57:03;;;;;;;8.20;1.95;;;24.80;95.50;;;;;;5116101;27;20209;-46
2022/08/23 08:59:50;;;;;;;7.10;2.15;;;24.80;95.40;;;;;;5078967;27;20234;-47
2022/08/23 09:02:22;;;;;;;6.47;1.65;;;24.90;95.50;;;;;;5101799;27;20249;-47
2022/08/23 09:05:02;;;;;;;4.95;2.00;;;24.90;95.50;;;;;;5093645;27;20307;-46
2022/08/23 09:07:59;;;;;;;7.53;1.77;;;25.00;95.50;;;;;;5110171;27;20197;-47
2022/08/23 09:10:59;;;;;;;3.67;1.50;;;25.00;95.70;;;;;;5122693;27;20643;-47
2022/08/23 09:13:32;;;;;;;3.35;1.60;;;25.10;95.60;;;;;;5067208;27;20303;-47
2022/08/23 09:16:20;;;;;;;2.83;1.65;;;25.20;95.70;;;;;;5117276;27;20700;-47
2022/08/23 09:18:48;;;;;;;2.38;1.23;;;25.20;95.60;;;;;;5115793;27;20259;-49
2022/08/23 09:21:19;;;;;;;2.15;1.10;;;25.30;95.60;;;;;;5115165;27;20616;-47
2022/08/23 09:23:50;;;;;;;3.00;1.30;;;25.40;95.50;;;;;;5123228;27;20624;-47
2022/08/23 09:26:31;;;;;;;13.30;2.42;;;25.40;95.60;;;;;;5095329;28;20565;-47
2022/08/23 09:29:03;;;;;;;7.57;1.60;;;25.50;95.60;;;;;;5097784;27;20205;-47
2022/08/23 09:31:41;;;;;;;4.75;1.15;;;25.60;95.50;;;;;;5087719;27;20197;-47
2022/08/23 09:34:17;;;;;;;3.15;1.42;;;25.60;95.50;;;;;;5115189;27;20620;-47
2022/08/23 09:36:45;;;;;;;5.32;1.48;;;25.70;95.50;;;;;;5106446;28;20308;-47
2022/08/23 09:39:29;;;;;;;3.33;1.52;;;25.80;95.50;;;;;;5119859;27;20300;-47
2022/08/23 09:42:01;;;;;;;6.68;1.40;;;25.90;95.60;;;;;;5108006;27;20752;-47
2022/08/23 09:44:42;;;;;;;6.65;1.70;;;25.90;95.60;;;;;;5118695;27;20222;-47
2022/08/23 09:47:14;;;;;;;9.15;1.30;;;25.90;95.60;;;;;;5084511;27;20193;-48
2022/08/23 09:49:47;;;;;;;26.40;3.85;;;26.00;95.60;;;;;;5099659;28;20202;-48
2022/08/23 09:52:31;;;;;;;5.28;1.52;;;26.10;95.60;;;;;;5094811;28;20728;-47
2022/08/23 09:55:08;;;;;;;5.28;1.48;;;26.20;95.50;;;;;;5118855;27;20217;-41
2022/08/23 09:57:40;;;;;;;5.70;1.40;;;26.20;95.60;;;;;;5105643;27;20197;-41
2022/08/23 10:00:20;;;;;;;6.28;1.48;;;26.30;95.70;;;;;;5105816;28;21481;-41
2022/08/23 10:02:48;;;;;;;20.88;3.10;;;26.40;95.80;;;;;;5094478;28;20707;-41
2022/08/23 10:05:15;;;;;;;14.27;2.78;;;26.50;95.60;;;;;;5116680;27;20604;-41
2022/08/23 10:07:55;;;;;;;15.80;2.72;;;26.60;95.50;;;;;;5116095;28;20208;-41
2022/08/23 10:10:45;;;;;;;26.73;3.78;;;26.60;95.50;;;;;;5121965;27;20251;-41
2022/08/23 10:13:20;;;;;;;10.95;2.00;;;26.70;95.50;;;;;;5126111;27;20262;-41
2022/08/23 10:15:57;;;;;;;6.68;1.60;;;26.80;95.40;;;;;;5114435;28;20198;-40
2022/08/23 10:18:47;;;;;;;5.78;1.52;;;26.90;95.00;;;;;;5091317;28;20357;-40
2022/08/23 10:21:23;;;;;;;4.20;1.42;;;26.90;95.40;;;;;;5107013;28;20201;-40
2022/08/23 10:24:17;;;;;;;6.28;1.80;;;27.00;95.40;;;;;;5123176;28;20213;-41
2022/08/23 10:26:59;;;;;;;11.38;2.60;;;27.20;95.50;;;;;;5113008;28;20301;-40
2022/08/23 10:29:52;;;;;;;5.50;2.38;;;27.20;95.40;;;;;;5097965;28;20233;-40
2022/08/23 10:32:26;;;;;;;10.25;2.63;;;27.30;95.20;;;;;;5100851;28;20307;-40
2022/08/23 10:35:05;;;;;;;8.70;3.00;;;27.30;95.00;;;;;;5110255;27;20212;-40
2022/08/23 10:37:54;;;;;;;13.10;2.30;;;27.40;94.60;;;;;;5092975;28;20214;-41
2022/08/23 10:40:27;;;;;;;4.43;1.90;;;27.50;95.60;;;;;;5107100;28;20213;-40
2022/08/23 10:43:15;;;;;;;8.98;2.63;;;27.50;95.20;;;;;;5107243;28;20202;-40
2022/08/23 10:45:45;;;;;;;5.57;1.55;;;27.60;94.90;;;;;;5094589;28;20282;-40
2022/08/23 10:48:27;;;;;;;5.30;1.40;;;27.60;95.00;;;;;;5098916;28;20186;-40
2022/08/23 10:50:59;;;;;;;3.78;0.95;;;27.60;95.00;;;;;;5102440;28;20206;-40
2022/08/23 10:54:00;;;;;;;2.88;1.35;;;27.60;94.90;;;;;;5115320;28;20742;-40
2022/08/23 10:56:33;;;;;;;14.77;3.05;;;27.70;95.20;;;;;;5116885;27;20201;-40
2022/08/23 10:59:19;;;;;;;11.23;1.85;;;27.70;94.60;;;;;;5113466;27;20582;-40
2022/08/23 11:01:57;;;;;;;7.82;1.63;;;27.80;94.90;;;;;;5104322;27;20255;-40
2022/08/23 11:04:45;;;;;;;15.63;2.75;;;27.80;94.90;;;;;;5107442;27;20237;-40
2022/08/23 11:07:39;;;;;;;5.55;1.65;;;27.90;94.70;;;;;;5114367;27;20206;-40
2022/08/23 11:10:27;;;;;;;5.05;1.48;;;27.90;94.90;;;;;;5129033;27;20569;-40
2022/08/23 11:13:10;;;;;;;7.28;1.50;;;27.90;94.10;;;;;;5123443;27;20214;-40
2022/08/23 11:15:58;;;;;;;10.77;2.10;;;28.00;94.80;;;;;;5116558;27;20285;-40
2022/08/23 11:18:47;;;;;;;10.35;1.80;;;28.00;94.90;;;;;;5136226;27;20201;-40
2022/08/23 11:21:19;;;;;;;6.03;1.88;;;28.00;94.80;;;;;;5121116;27;20216;-40
2022/08/23 11:24:01;;;;;;;7.55;1.55;;;28.10;94.80;;;;;;5115455;27;20290;-40
2022/08/23 11:26:30;;;;;;;7.28;1.50;;;28.10;95.00;;;;;;5118040;27;20209;-40
2022/08/23 11:29:09;;;;;;;5.18;1.40;;;28.20;95.20;;;;;;5111380;27;20221;-40
2022/08/23 11:31:46;;;;;;;4.85;1.35;;;28.30;94.70;;;;;;5125148;27;20208;-40
2022/08/23 11:34:48;;;;;;;9.40;1.88;;;28.30;94.90;;;;;;5109238;27;20200;-39
2022/08/23 11:37:19;;;;;;;15.43;2.65;;;28.40;94.80;;;;;;5112378;27;20293;-39
2022/08/23 11:39:57;;;;;;;2.92;1.58;;;28.40;95.00;;;;;;5126783;27;20405;-39
2022/08/23 11:42:37;;;;;;;4.35;1.40;;;28.40;94.80;;;;;;5120096;27;20233;-38
2022/08/23 11:45:39;;;;;;;6.07;1.02;;;28.50;94.50;;;;;;5106978;27;20252;-40
2022/08/23 11:48:28;;;;;;;3.53;1.15;;;28.50;94.60;;;;;;5110928;27;20218;-40
2022/08/23 11:51:08;;;;;;;6.93;1.40;;;28.50;94.70;;;;;;5128502;27;20229;-41
2022/08/23 11:53:53;;;;;;;1.38;1.00;;;28.50;94.40;;;;;;5107839;28;20244;-39
2022/08/23 11:56:51;;;;;;;13.45;1.48;;;28.50;94.50;;;;;;5139463;27;20204;-39
2022/08/23 11:59:33;;;;;;;1.75;0.70;;;28.50;94.20;;;;;;5113358;27;20236;-40
2022/08/23 12:02:30;;;;;;;2.70;0.70;;;28.50;94.30;;;;;;5110874;27;21045;-40
2022/08/23 12:05:31;;;;;;;2.58;0.90;;;28.50;94.20;;;;;;5109217;27;20237;-41
2022/08/23 12:08:01;;;;;;;0.90;0.57;;;28.50;94.30;;;;;;5092574;27;20270;-41
2022/08/23 12:10:41;;;;;;;5.45;0.90;;;28.50;94.20;;;;;;5125133;27;20259;-41
2022/08/23 12:13:18;;;;;;;1.40;0.73;;;28.60;94.20;;;;;;5117788;27;20209;-41
2022/08/23 12:16:14;;;;;;;0.93;0.60;;;28.60;94.40;;;;;;5126453;27;20269;-39
2022/08/23 12:18:46;;;;;;;2.92;0.93;;;28.60;94.20;;;;;;5125571;27;20194;-41
2022/08/23 12:21:30;;;;;;;3.60;0.82;;;28.60;94.20;;;;;;5116263;27;20243;-41
2022/08/23 12:24:02;;;;;;;5.90;1.20;;;28.60;94.10;;;;;;5099385;27;20244;-41
2022/08/23 12:27:03;;;;;;;3.55;1.20;;;28.70;94.20;;;;;;5125273;27;20198;-39
2022/08/23 12:29:53;;;;;;;2.80;0.90;;;28.70;94.30;;;;;;5119206;27;20219;-41
2022/08/23 12:32:27;;;;;;;4.28;0.88;;;28.70;94.40;;;;;;5103907;27;20258;-41
2022/08/23 12:35:20;;;;;;;1.92;1.05;;;28.80;94.60;;;;;;5109862;27;20198;-39
2022/08/23 12:38:09;;;;;;;2.90;0.98;;;28.80;94.50;;;;;;5094838;27;20251;-49
2022/08/23 12:40:50;;;;;;;7.85;1.30;;;28.90;94.80;;;;;;5106702;27;20284;-46
2022/08/23 12:43:22;;;;;;;7.30;1.00;;;29.00;94.70;;;;;;5117768;27;20975;-47
2022/08/23 12:46:00;;;;;;;5.53;0.82;;;29.10;94.50;;;;;;5108822;27;20775;-47
2022/08/23 12:48:30;;;;;;;5.15;1.00;;;29.10;94.70;;;;;;5100701;27;20567;-47
2022/08/23 12:51:16;;;;;;;1.58;0.90;;;29.20;94.60;;;;;;5110147;27;20308;-46
2022/08/23 12:53:46;;;;;;;1.50;0.50;;;29.20;93.80;;;;;;5118673;27;20224;-47
2022/08/23 12:56:18;;;;;;;3.13;0.90;;;29.30;94.00;;;;;;5111402;27;20288;-47
2022/08/23 12:58:56;;;;;;;1.50;0.73;;;29.30;93.70;;;;;;5108666;27;20261;-47
2022/08/23 13:01:33;;;;;;;8.43;1.05;;;29.40;94.10;;;;;;5105915;27;20211;-47
2022/08/23 13:04:08;;;;;;;2.65;1.08;;;29.40;94.00;;;;;;5114403;27;20225;-47
2022/08/23 13:06:55;;;;;;;5.43;1.25;;;29.40;94.00;;;;;;5112482;27;20731;-47
2022/08/23 13:09:32;;;;;;;18.75;2.15;;;29.50;93.90;;;;;;5094908;27;20212;-47
2022/08/23 13:12:00;;;;;;;17.13;2.15;;;29.50;93.60;;;;;;5109990;27;20201;-47
2022/08/23 13:14:46;;;;;;;9.68;1.25;;;29.50;94.00;;;;;;5114981;27;20647;-49
2022/08/23 13:17:29;;;;;;;8.43;1.83;;;29.50;94.10;;;;;;5119566;27;20193;-39
2022/08/23 13:20:05;;;;;;;7.65;1.23;;;29.50;93.80;;;;;;5114765;27;20233;-40
2022/08/23 13:22:37;;;;;;;2.97;0.80;;;29.60;94.10;;;;;;5110104;27;20216;-39
2022/08/23 13:25:25;;;;;;;1.58;0.60;;;29.60;93.60;;;;;;5097334;27;20300;-41
2022/08/23 13:28:21;;;;;;;6.15;0.88;;;29.70;93.90;;;;;;5103150;27;20237;-41
2022/08/23 13:31:02;;;;;;;7.18;0.90;;;29.70;93.90;;;;;;5096192;27;20297;-40